Patrick Air Force Base
KCOF : now visible

Airfield :











YOU CAN JOIN US ON...

 
LOGIN :

Register | Disclaimer

   EN    FR    IT 

 









Legend :    VFR   Marginal VFR   IFR   Intensive IFR   Very Intensive IFR
Visi :
Ceiling :
>= 8 km
>= 3000ft
5 to 8 km
1000 to 3000 ft
1500m to 5 km
500 to 1000 ft
800 to 1500m
200 to 500 ft
< 800m
< 200 ft
Symbols :   Thunderstorms  Fog  Heavy snow  Heavy precipitations  Wind > 20 kt






- Airport Elevation : 8 ft


KCOF - Patrick Air Force Base

CURRENT METAR :
  • 231756Z AUTO 11008KT 10SM FEW095 FEW120 SCT170 SCT190 BKN210 30/21 A3008 RMK AO2 SLP191 60000 T02950211 10297 20244 58007 $

EXPIRED METARs :
  • 231656Z AUTO 12006KT 10SM FEW140 FEW160 SCT200 29/22 A3011 RMK AO2 DZB23E30DZB30E30 SLP201 P0000 T02880223 $
  • 231630Z AUTO 13007KT 10SM FEW180 FEW210 29/22 A3012 RMK AO2 DZB23E30DZB30 SLP204 $
  • 231623Z AUTO 13007KT 10SM -DZ FEW170 FEW200 29/23 A3012 RMK AO2 DZB23 SLP204 $
  • 231556Z AUTO 14007KT 10SM FEW210 28/22 A3011 RMK AO2 DZB09E16DZB16E16 SLP201 P0000 T02830215 $

TAF TAF KCOF
Valid from the 23 at 18:00 until the 25 at 00:00 UTC


231800Z 2318/2424 12012KT 9000 -SHRA VCTS SCT040CB BKN050 OVC080 QNH3002INS
TEMPO 2318/2402 30020G30KT 4800 -TSRA BKN030CB OVC060
BECMG 2405/2406 VRB06KT 9999 NSW SCT050 QNH3001INS
BECMG 2411/2412 16012KT 9000 -SHRA BKN040 OVC060 QNH3001INS
TEMPO 2418/2424 31015G25KT 4800 -TSRA BKN025CB OVC040 TX30/2318Z TN23/2410Z
KZMA FIR / North America



MET'MAP, your aeronautical weather chart ! - Copyright ORBIFLY December 2007 - Disclaimer

ORBIFLY MET'MAP TEAM :

Programming & Development : Alexandra Zaïnal
Concept & original design : Baudouin d'Aumeries
Assistance for programming : Marc-Olivier Méhu
Technical & hardware support : Manuel Goepfert

Contact : metmap@orbifly.com




SOURCES & CREDITS :

   NOAA       Earth
Advisory